Time;durP1;ratioP1;P1;durP2;ratioP2;P2;SDS_P1;SDS_P2;PMS_P1;PMS_P2;Temp;Humidity;BMP_temperature;BMP_pressure;BME280_temperature;BME280_humidity;BME280_pressure;Samples;Min_cycle;Max_cycle;Signal;HPM_P1;HPM_P2
2023/12/21 00:01:40;;;;;;;;;;;;;;;-1.08;89.67;94768.47;5016220;28;19956;-66
2023/12/21 00:04:06;;;;;;;;;;;;;;;-1.42;92.83;94755.59;5016295;28;19979;-67
2023/12/21 00:06:31;;;;;;;;;;;;;;;-0.75;91.01;94747.53;5019266;28;19956;-66
2023/12/21 00:08:57;;;;;;;;;;;;;;;-0.21;87.19;94739.53;5016314;28;20524;-66
2023/12/21 00:11:22;;;;;;;;;;;;;;;-0.32;87.26;94731.78;5017169;28;19929;-68
2023/12/21 00:13:47;;;;;;;;;;;;;;;-0.61;88.08;94733.31;5016005;28;19931;-67
2023/12/21 00:16:13;;;;;;;;;;;;;;;-1.31;90.73;94712.91;5015711;28;19929;-65
2023/12/21 00:18:38;;;;;;;;;;;;;;;-0.49;90.40;94714.91;5020774;28;19925;-67
2023/12/21 00:21:03;;;;;;;;;;;;;;;-0.76;90.49;94701.44;5019910;28;19925;-68
2023/12/21 00:23:29;;;;;;;;;;;;;;;-0.50;86.26;94681.88;5020584;28;20521;-66
2023/12/21 00:25:54;;;;;;;;;;;;;;;-0.78;88.29;94689.47;5020163;28;19966;-67
2023/12/21 00:28:19;;;;;;;;;;;;;;;-0.66;89.28;94698.88;5016387;28;19925;-67
2023/12/21 00:30:44;;;;;;;;;;;;;;;-0.75;88.43;94692.66;5017285;28;20446;-65
2023/12/21 00:33:10;;;;;;;;;;;;;;;-1.10;89.43;94676.34;5019660;28;19987;-67
2023/12/21 00:35:35;;;;;;;;;;;;;;;-1.26;90.20;94689.00;5019681;28;20413;-64
2023/12/21 00:38:00;;;;;;;;;;;;;;;-1.11;91.53;94689.53;5020269;28;19978;-65
2023/12/21 00:40:25;;;;;;;;;;;;;;;-1.06;92.21;94686.53;5020634;28;19925;-66
2023/12/21 00:42:51;;;;;;;;;;;;;;;-0.79;90.45;94680.78;5020617;28;19917;-66
2023/12/21 00:45:16;;;;;;;;;;;;;;;-1.14;89.96;94684.56;5018421;28;19925;-64
2023/12/21 00:47:42;;;;;;;;;;;;;;;-0.70;89.25;94666.13;5015038;28;20461;-67
2023/12/21 00:50:07;;;;;;;;;;;;;;;-0.66;88.90;94661.44;5020297;28;20012;-67
2023/12/21 00:52:32;;;;;;;;;;;;;;;-0.53;89.14;94667.28;5014565;28;19921;-67
2023/12/21 00:54:58;;;;;;;;;;;;;;;-0.74;90.02;94655.06;5020119;28;20141;-66
2023/12/21 00:57:23;;;;;;;;;;;;;;;-0.55;88.53;94678.84;5019615;28;19921;-66
2023/12/21 00:59:48;;;;;;;;;;;;;;;-0.58;89.40;94670.28;5018770;28;19983;-66
2023/12/21 01:02:13;;;;;;;;;;;;;;;-0.93;90.11;94668.91;5020238;28;19922;-67
2023/12/21 01:04:39;;;;;;;;;;;;;;;-0.75;89.90;94674.34;5019593;28;20298;-67
2023/12/21 01:07:04;;;;;;;;;;;;;;;-1.23;91.71;94670.47;5020076;28;19932;-66
2023/12/21 01:09:29;;;;;;;;;;;;;;;-0.98;91.01;94676.28;5014208;28;19968;-66
2023/12/21 01:11:54;;;;;;;;;;;;;;;-0.77;90.69;94652.75;5014232;28;20262;-67
2023/12/21 01:14:21;;;;;;;;;;;;;;;-0.85;92.34;94657.78;5017382;28;20603;-67
2023/12/21 01:16:47;;;;;;;;;;;;;;;-1.12;90.86;94661.75;5018517;28;20715;-66
2023/12/21 01:19:12;;;;;;;;;;;;;;;-0.80;90.90;94652.16;5018393;28;19921;-67
2023/12/21 01:21:38;;;;;;;;;;;;;;;-0.96;91.29;94651.69;5018378;28;19925;-67
2023/12/21 01:24:03;;;;;;;;;;;;;;;-0.72;90.02;94655.78;5018136;28;20378;-66
2023/12/21 01:26:28;;;;;;;;;;;;;;;-0.82;90.24;94634.00;5016695;28;19948;-67
2023/12/21 01:28:54;;;;;;;;;;;;;;;-0.61;88.87;94646.22;5013806;28;20016;-67
2023/12/21 01:31:19;;;;;;;;;;;;;;;-0.89;90.67;94636.31;5018533;28;19921;-67
2023/12/21 01:33:44;;;;;;;;;;;;;;;-0.57;91.24;94639.75;5018200;28;19973;-66
2023/12/21 01:36:10;;;;;;;;;;;;;;;-0.68;89.30;94635.44;5018436;28;19936;-67
2023/12/21 01:38:35;;;;;;;;;;;;;;;-0.58;90.14;94625.84;5018499;28;20421;-66
2023/12/21 01:41:00;;;;;;;;;;;;;;;-0.60;89.81;94632.97;5018332;28;19983;-67
2023/12/21 01:43:26;;;;;;;;;;;;;;;-0.41;89.32;94622.72;5018038;28;20455;-66
2023/12/21 01:45:51;;;;;;;;;;;;;;;-0.66;90.34;94627.44;5016270;28;19925;-66
2023/12/21 01:48:16;;;;;;;;;;;;;;;-0.28;89.27;94627.69;5016107;28;19921;-66
2023/12/21 01:50:42;;;;;;;;;;;;;;;-0.34;88.72;94623.84;5013908;28;19921;-68
2023/12/21 01:53:09;;;;;;;;;;;;;;;-0.21;87.33;94624.41;5017339;28;19971;-67
2023/12/21 01:55:34;;;;;;;;;;;;;;;-0.14;87.50;94618.66;5015993;28;20012;-66
2023/12/21 01:58:00;;;;;;;;;;;;;;;0.11;87.06;94617.28;5016666;28;19996;-67
2023/12/21 02:00:25;;;;;;;;;;;;;;;0.25;84.16;94602.97;5015568;28;20502;-66
2023/12/21 02:02:50;;;;;;;;;;;;;;;0.11;85.37;94598.13;5018809;28;20396;-66
2023/12/21 02:05:16;;;;;;;;;;;;;;;-0.01;86.53;94597.44;5018569;28;19932;-67
2023/12/21 02:07:41;;;;;;;;;;;;;;;0.07;86.34;94571.38;5018600;28;19932;-67
2023/12/21 02:10:06;;;;;;;;;;;;;;;-0.35;86.00;94567.25;5021402;28;19917;-65
2023/12/21 02:12:31;;;;;;;;;;;;;;;-0.12;86.54;94556.53;5018293;28;20615;-66
2023/12/21 02:14:57;;;;;;;;;;;;;;;-0.18;87.19;94545.66;5018528;28;19975;-67
2023/12/21 02:17:22;;;;;;;;;;;;;;;-0.59;88.39;94542.31;5018446;28;19925;-65
2023/12/21 02:19:47;;;;;;;;;;;;;;;-0.25;88.72;94544.56;5016496;28;20123;-65
2023/12/21 02:22:13;;;;;;;;;;;;;;;0.10;86.89;94558.03;5019141;28;20133;-66
2023/12/21 02:24:38;;;;;;;;;;;;;;;-0.38;88.93;94557.03;5018039;28;20368;-67
2023/12/21 02:27:04;;;;;;;;;;;;;;;-0.20;90.17;94544.94;5017345;28;19923;-67
2023/12/21 02:29:29;;;;;;;;;;;;;;;-0.14;86.88;94551.44;5010847;28;19929;-65
2023/12/21 02:31:54;;;;;;;;;;;;;;;-0.37;88.19;94563.94;5018565;28;19928;-66
2023/12/21 02:34:19;;;;;;;;;;;;;;;-0.53;87.72;94548.78;5018137;28;20450;-67
2023/12/21 02:36:45;;;;;;;;;;;;;;;-0.51;90.34;94542.44;5018186;28;19921;-66
2023/12/21 02:39:10;;;;;;;;;;;;;;;-0.21;89.16;94532.84;5017278;28;19999;-67
2023/12/21 02:41:35;;;;;;;;;;;;;;;-0.11;89.31;94522.38;5018251;28;19921;-67
2023/12/21 02:44:00;;;;;;;;;;;;;;;-0.39;90.57;94522.25;5015908;28;19921;-67
2023/12/21 02:46:26;;;;;;;;;;;;;;;-0.46;89.89;94519.34;5023541;28;19921;-67
2023/12/21 02:48:53;;;;;;;;;;;;;;;-0.23;89.56;94531.34;5017543;28;19955;-67
2023/12/21 02:51:18;;;;;;;;;;;;;;;-0.38;90.55;94539.56;5010179;28;19967;-67
2023/12/21 02:53:43;;;;;;;;;;;;;;;-0.32;90.21;94520.72;5017643;28;19998;-67
2023/12/21 02:56:08;;;;;;;;;;;;;;;-0.40;89.23;94522.38;5017737;28;19979;-68
2023/12/21 02:58:34;;;;;;;;;;;;;;;-0.82;91.42;94519.00;5019059;28;19928;-67
2023/12/21 03:01:00;;;;;;;;;;;;;;;-0.48;91.14;94497.72;5017464;28;20406;-67
2023/12/21 03:03:25;;;;;;;;;;;;;;;-0.55;90.98;94495.81;5020729;28;19979;-67
2023/12/21 03:05:51;;;;;;;;;;;;;;;-0.35;91.68;94487.00;5017744;28;20372;-66
2023/12/21 03:08:16;;;;;;;;;;;;;;;-0.31;89.76;94477.06;5020888;28;19928;-66
2023/12/21 03:10:41;;;;;;;;;;;;;;;-0.22;88.65;94473.66;5020684;28;19925;-66
2023/12/21 03:13:06;;;;;;;;;;;;;;;-0.41;90.58;94491.97;5016646;28;19979;-66
2023/12/21 03:15:32;;;;;;;;;;;;;;;-0.27;90.07;94481.06;5022439;28;19979;-68
2023/12/21 03:17:57;;;;;;;;;;;;;;;-0.20;89.19;94486.59;5022574;28;20303;-67
2023/12/21 03:20:22;;;;;;;;;;;;;;;-0.18;88.75;94472.41;5017389;28;20103;-67
2023/12/21 03:22:48;;;;;;;;;;;;;;;-0.61;90.68;94476.25;5023341;28;19963;-67
2023/12/21 03:25:13;;;;;;;;;;;;;;;-0.76;93.02;94484.50;5021068;28;20391;-66
2023/12/21 03:27:39;;;;;;;;;;;;;;;-0.66;92.81;94476.66;5018090;28;19936;-67
2023/12/21 03:30:04;;;;;;;;;;;;;;;-0.75;93.15;94453.97;5010211;28;19930;-66
2023/12/21 03:32:29;;;;;;;;;;;;;;;-0.39;91.38;94437.72;5016874;28;19929;-67
2023/12/21 03:34:56;;;;;;;;;;;;;;;-0.63;92.18;94459.88;5017300;28;20520;-66
2023/12/21 03:37:26;;;;;;;;;;;;;;;-0.38;92.59;94426.28;5017662;28;19928;-67
2023/12/21 03:39:51;;;;;;;;;;;;;;;-0.67;93.33;94435.78;5016882;28;20573;-67
2023/12/21 03:42:16;;;;;;;;;;;;;;;-0.49;91.66;94428.09;5017095;28;19929;-65
2023/12/21 03:44:41;;;;;;;;;;;;;;;-0.34;90.17;94431.09;5017142;28;20035;-65
2023/12/21 03:47:07;;;;;;;;;;;;;;;-0.54;92.70;94438.13;5015857;28;19932;-67
2023/12/21 03:49:32;;;;;;;;;;;;;;;-0.58;92.66;94431.50;5014123;28;19926;-66
2023/12/21 03:51:57;;;;;;;;;;;;;;;-0.51;91.95;94424.78;5019387;28;20026;-66
2023/12/21 03:54:22;;;;;;;;;;;;;;;-0.57;91.88;94430.56;5020154;28;19948;-65
2023/12/21 03:56:48;;;;;;;;;;;;;;;-0.53;91.89;94425.88;5019515;28;19921;-67
2023/12/21 03:59:13;;;;;;;;;;;;;;;-0.57;92.74;94410.47;5020289;28;20062;-67
2023/12/21 04:01:38;;;;;;;;;;;;;;;-0.48;93.10;94418.44;5019514;28;19924;-66
2023/12/21 04:04:03;;;;;;;;;;;;;;;-0.66;94.05;94385.16;5019419;28;20517;-66
2023/12/21 04:06:29;;;;;;;;;;;;;;;-0.55;93.03;94372.91;5020582;28;19928;-67
2023/12/21 04:08:54;;;;;;;;;;;;;;;-0.50;93.13;94378.53;5016729;28;19929;-66
2023/12/21 04:11:19;;;;;;;;;;;;;;;-0.66;95.25;94374.69;5019871;28;19929;-65
2023/12/21 04:13:46;;;;;;;;;;;;;;;-0.51;94.01;94369.84;5020248;28;19921;-65
2023/12/21 04:16:11;;;;;;;;;;;;;;;-0.08;90.91;94372.94;5019753;28;20551;-66
2023/12/21 04:18:37;;;;;;;;;;;;;;;-0.64;92.78;94382.41;5020333;28;19932;-65
2023/12/21 04:21:02;;;;;;;;;;;;;;;-0.82;94.13;94367.41;5019605;28;20706;-65
2023/12/21 04:23:28;;;;;;;;;;;;;;;-0.38;94.22;94356.50;5020157;28;20636;-66
2023/12/21 04:25:53;;;;;;;;;;;;;;;-0.22;91.76;94353.31;5019405;28;20244;-67
2023/12/21 04:28:18;;;;;;;;;;;;;;;-0.82;93.52;94359.56;5018424;28;20075;-66
2023/12/21 04:30:43;;;;;;;;;;;;;;;-0.63;93.81;94360.53;5020151;28;20425;-65
2023/12/21 04:33:10;;;;;;;;;;;;;;;-0.87;94.36;94343.47;5019994;28;19936;-66
2023/12/21 04:35:35;;;;;;;;;;;;;;;-0.65;94.52;94333.72;5020245;28;19929;-66
2023/12/21 04:38:00;;;;;;;;;;;;;;;-0.53;94.56;94311.66;5020789;28;19924;-65
2023/12/21 04:40:26;;;;;;;;;;;;;;;-0.59;94.59;94322.66;5019956;28;20293;-66
2023/12/21 04:42:55;;;;;;;;;;;;;;;-0.62;93.45;94315.94;5020500;28;19928;-66
2023/12/21 04:45:20;;;;;;;;;;;;;;;-0.36;93.58;94299.66;5019928;28;20349;-66
2023/12/21 04:47:45;;;;;;;;;;;;;;;-0.20;92.71;94308.69;5018485;28;19932;-66
2023/12/21 04:50:11;;;;;;;;;;;;;;;-0.35;92.05;94303.06;5020786;28;20004;-66
2023/12/21 04:52:36;;;;;;;;;;;;;;;-0.17;92.54;94305.75;5020131;28;19943;-65
2023/12/21 04:55:01;;;;;;;;;;;;;;;-0.51;93.25;94299.25;5020261;28;19972;-66
2023/12/21 04:57:26;;;;;;;;;;;;;;;-0.21;92.96;94300.00;5020158;28;20279;-65
2023/12/21 04:59:52;;;;;;;;;;;;;;;-0.27;91.91;94294.53;5019869;28;20253;-66
2023/12/21 05:02:17;;;;;;;;;;;;;;;-0.31;92.32;94312.28;5018826;28;19929;-66
2023/12/21 05:04:42;;;;;;;;;;;;;;;-0.39;95.09;94301.72;5020224;28;19983;-65
2023/12/21 05:07:10;;;;;;;;;;;;;;;-0.51;93.48;94295.84;5020321;28;20372;-66
2023/12/21 05:09:35;;;;;;;;;;;;;;;-0.74;95.68;94278.66;5019978;28;19928;-67
2023/12/21 05:12:01;;;;;;;;;;;;;;;-0.51;95.40;94283.56;5019664;28;20039;-66
2023/12/21 05:14:26;;;;;;;;;;;;;;;-0.51;96.08;94280.94;5019810;28;20032;-66
2023/12/21 05:16:51;;;;;;;;;;;;;;;-0.38;95.93;94266.72;5019806;28;19939;-69
2023/12/21 05:19:17;;;;;;;;;;;;;;;-0.56;96.80;94270.09;5019577;28;19921;-68
2023/12/21 05:21:43;;;;;;;;;;;;;;;-0.96;96.35;94278.03;5019806;28;19925;-69
2023/12/21 05:24:08;;;;;;;;;;;;;;;-0.50;96.67;94253.84;5019087;28;19932;-69
2023/12/21 05:26:34;;;;;;;;;;;;;;;-0.38;94.55;94261.50;5019949;28;19921;-68
2023/12/21 05:28:59;;;;;;;;;;;;;;;-0.46;95.11;94257.00;5018307;28;19936;-68
2023/12/21 05:31:24;;;;;;;;;;;;;;;-0.44;94.00;94262.91;5019458;28;19956;-68
2023/12/21 05:33:50;;;;;;;;;;;;;;;-0.27;95.13;94244.81;5018424;28;19933;-70
2023/12/21 05:36:22;;;;;;;;;;;;;;;-0.01;93.96;94231.88;5019229;28;19936;-68
2023/12/21 05:38:47;;;;;;;;;;;;;;;-0.39;94.20;94247.63;5019450;28;19948;-68
2023/12/21 05:41:13;;;;;;;;;;;;;;;-0.14;93.57;94215.72;5018714;28;20020;-69
2023/12/21 05:43:38;;;;;;;;;;;;;;;-0.11;92.47;94215.41;5019300;28;19921;-67
2023/12/21 05:46:04;;;;;;;;;;;;;;;0.02;94.21;94196.75;5017635;28;19921;-69
2023/12/21 05:48:29;;;;;;;;;;;;;;;0.09;92.53;94195.19;5019219;28;20191;-67
2023/12/21 05:50:54;;;;;;;;;;;;;;;-0.13;92.46;94199.84;5018894;28;20310;-69
2023/12/21 05:53:20;;;;;;;;;;;;;;;-0.20;93.49;94181.31;5018725;28;19974;-66
2023/12/21 05:55:45;;;;;;;;;;;;;;;-0.39;95.39;94187.47;5017909;28;19964;-67
2023/12/21 05:58:10;;;;;;;;;;;;;;;-0.66;96.11;94176.00;5018635;28;19929;-67
2023/12/21 06:00:37;;;;;;;;;;;;;;;-0.46;94.24;94186.41;5018990;28;20398;-66
2023/12/21 06:03:02;;;;;;;;;;;;;;;-0.55;96.04;94180.22;5019368;28;19932;-67
2023/12/21 06:05:28;;;;;;;;;;;;;;;-0.34;94.95;94174.75;5018878;28;20298;-66
2023/12/21 06:07:53;;;;;;;;;;;;;;;-0.47;96.37;94172.47;5018708;28;20024;-67
2023/12/21 06:10:18;;;;;;;;;;;;;;;-0.23;94.90;94180.78;5018610;28;19968;-69
2023/12/21 06:12:43;;;;;;;;;;;;;;;-0.39;94.79;94199.72;5018272;28;19947;-65
2023/12/21 06:15:09;;;;;;;;;;;;;;;-0.71;96.36;94173.81;5017564;28;19921;-66
2023/12/21 06:17:34;;;;;;;;;;;;;;;-0.83;97.51;94175.81;5017960;28;19929;-68
2023/12/21 06:19:59;;;;;;;;;;;;;;;-0.21;95.36;94147.44;5018503;28;20063;-66
2023/12/21 06:22:25;;;;;;;;;;;;;;;-0.22;94.62;94148.41;5019195;28;20598;-66
2023/12/21 06:24:50;;;;;;;;;;;;;;;-0.53;95.96;94152.16;5017527;28;19929;-65
2023/12/21 06:27:16;;;;;;;;;;;;;;;-0.55;96.33;94158.50;5018617;28;19921;-65
2023/12/21 06:29:42;;;;;;;;;;;;;;;-0.70;98.49;94156.38;5016738;28;19925;-65
2023/12/21 06:32:07;;;;;;;;;;;;;;;-0.82;98.01;94143.47;5013024;28;19929;-65
2023/12/21 06:34:33;;;;;;;;;;;;;;;-0.53;97.32;94153.94;5017805;28;19931;-66
2023/12/21 06:36:59;;;;;;;;;;;;;;;-0.68;97.00;94161.44;5018165;28;19921;-65
2023/12/21 06:39:24;;;;;;;;;;;;;;;-0.39;97.07;94142.19;5018123;28;20306;-66
2023/12/21 06:41:49;;;;;;;;;;;;;;;-0.64;100.00;94163.59;5018326;28;19947;-64
2023/12/21 06:44:14;;;;;;;;;;;;;;;-0.48;100.00;94160.38;5017993;28;19947;-64
2023/12/21 06:46:40;;;;;;;;;;;;;;;-0.57;100.00;94153.41;5016330;28;19969;-66
2023/12/21 06:49:09;;;;;;;;;;;;;;;-0.37;99.75;94142.88;5018559;28;20023;-65
2023/12/21 06:51:34;;;;;;;;;;;;;;;-0.68;99.13;94151.00;5017682;28;19925;-65
2023/12/21 06:53:59;;;;;;;;;;;;;;;-0.55;97.71;94148.84;5017540;28;19944;-65
2023/12/21 06:56:24;;;;;;;;;;;;;;;-0.37;97.90;94155.94;5017477;28;19925;-64
2023/12/21 06:58:50;;;;;;;;;;;;;;;-0.53;97.33;94161.78;5017305;28;19928;-66
2023/12/21 07:01:15;;;;;;;;;;;;;;;-0.22;98.28;94137.94;5016712;28;20362;-66
2023/12/21 07:03:40;;;;;;;;;;;;;;;0.01;96.33;94134.91;5017941;28;19928;-65
2023/12/21 07:06:08;;;;;;;;;;;;;;;-0.24;95.56;94129.44;5017865;28;19962;-65
2023/12/21 07:08:33;;;;;;;;;;;;;;;0.00;94.95;94126.22;5017308;28;20393;-66
2023/12/21 07:10:58;;;;;;;;;;;;;;;-0.01;94.83;94144.69;5017229;28;19918;-64
2023/12/21 07:13:24;;;;;;;;;;;;;;;-0.03;94.37;94133.56;5017269;28;20268;-66
2023/12/21 07:15:49;;;;;;;;;;;;;;;0.01;94.90;94133.13;5016816;28;19994;-65
2023/12/21 07:18:14;;;;;;;;;;;;;;;0.07;93.97;94119.44;5017947;28;19921;-64
2023/12/21 07:20:39;;;;;;;;;;;;;;;-0.06;93.90;94113.75;5017108;28;19929;-65
2023/12/21 07:23:05;;;;;;;;;;;;;;;-0.20;94.79;94108.06;5017255;28;19928;-66
2023/12/21 07:25:30;;;;;;;;;;;;;;;0.01;94.96;94098.28;5017537;28;20004;-65
2023/12/21 07:27:55;;;;;;;;;;;;;;;0.00;95.30;94089.59;5017173;28;20008;-67
2023/12/21 07:30:20;;;;;;;;;;;;;;;-0.09;95.68;94088.72;5023488;28;20155;-64
2023/12/21 07:32:46;;;;;;;;;;;;;;;0.01;96.12;94108.75;5022001;28;19924;-65
2023/12/21 07:35:11;;;;;;;;;;;;;;;0.25;94.81;94100.28;5023722;28;20024;-65
2023/12/21 07:37:38;;;;;;;;;;;;;;;0.11;94.82;94088.56;5022743;28;20078;-66
2023/12/21 07:40:04;;;;;;;;;;;;;;;0.51;92.70;94094.25;5023861;28;19929;-66
2023/12/21 07:42:29;;;;;;;;;;;;;;;0.41;93.32;94083.06;5023141;28;19935;-67
2023/12/21 07:44:55;;;;;;;;;;;;;;;0.32;91.16;94103.13;5022839;28;20382;-66
2023/12/21 07:47:20;;;;;;;;;;;;;;;0.33;93.32;94086.44;5023202;28;19935;-66
2023/12/21 07:49:45;;;;;;;;;;;;;;;0.21;92.32;94088.47;5025781;28;19968;-66
2023/12/21 07:52:10;;;;;;;;;;;;;;;0.30;92.40;94090.19;5022469;28;19925;-66
2023/12/21 07:54:36;;;;;;;;;;;;;;;0.23;93.52;94086.53;5022367;28;20099;-66
2023/12/21 07:57:01;;;;;;;;;;;;;;;0.44;91.57;94082.75;5022124;28;19933;-67
2023/12/21 07:59:26;;;;;;;;;;;;;;;0.10;94.14;94050.25;5019395;28;19928;-66
2023/12/21 08:01:51;;;;;;;;;;;;;;;0.31;93.98;94036.03;5019532;28;19965;-67
2023/12/21 08:04:16;;;;;;;;;;;;;;;0.67;92.85;94041.16;5027054;28;20666;-67
2023/12/21 08:06:42;;;;;;;;;;;;;;;0.12;93.83;94047.50;5019089;28;19921;-66
2023/12/21 08:09:07;;;;;;;;;;;;;;;-0.08;94.57;94047.66;5024306;28;19925;-65
2023/12/21 08:11:32;;;;;;;;;;;;;;;0.02;95.98;94058.88;5025312;28;19924;-66
2023/12/21 08:13:58;;;;;;;;;;;;;;;0.12;94.45;94037.03;5022202;28;20312;-66
2023/12/21 08:16:23;;;;;;;;;;;;;;;-0.14;94.03;94046.47;5022635;28;19948;-65
2023/12/21 08:18:48;;;;;;;;;;;;;;;-0.30;95.96;94036.69;5021690;28;19921;-65
2023/12/21 08:21:13;;;;;;;;;;;;;;;0.23;96.11;94020.25;5015440;28;20124;-66
2023/12/21 08:23:39;;;;;;;;;;;;;;;-0.13;96.56;94014.09;5016873;28;20553;-66
2023/12/21 08:26:05;;;;;;;;;;;;;;;-0.43;98.25;94024.78;5014901;28;19921;-66
2023/12/21 08:28:31;;;;;;;;;;;;;;;-0.41;99.32;94039.53;5012169;28;20690;-65
2023/12/21 08:30:56;;;;;;;;;;;;;;;-0.39;99.58;93995.72;5016620;28;19956;-64
2023/12/21 08:33:22;;;;;;;;;;;;;;;-0.33;99.16;93998.56;5016571;28;20051;-67
2023/12/21 08:35:47;;;;;;;;;;;;;;;-0.19;98.09;93970.22;5016633;28;19925;-66
2023/12/21 08:38:12;;;;;;;;;;;;;;;-0.07;97.88;93976.03;5018910;28;19925;-66
2023/12/21 08:40:37;;;;;;;;;;;;;;;-0.10;97.52;93965.91;5022164;28;20075;-65
2023/12/21 08:43:03;;;;;;;;;;;;;;;-0.53;98.45;93947.38;5022435;28;20048;-67
2023/12/21 08:45:28;;;;;;;;;;;;;;;-0.23;98.32;93954.00;5025655;28;19925;-66
2023/12/21 08:47:54;;;;;;;;;;;;;;;-0.27;97.15;93934.34;5026713;28;19991;-67
2023/12/21 08:50:19;;;;;;;;;;;;;;;-0.02;97.26;93939.78;5017191;28;19929;-65
2023/12/21 08:52:44;;;;;;;;;;;;;;;0.14;97.14;93941.66;5023752;28;19995;-66
2023/12/21 08:55:10;;;;;;;;;;;;;;;0.16;94.88;93921.41;5025740;28;19933;-66
2023/12/21 08:57:38;;;;;;;;;;;;;;;0.27;95.79;93930.78;5027827;28;19931;-66
2023/12/21 09:00:05;;;;;;;;;;;;;;;0.16;95.53;93934.50;5025691;28;19924;-66
2023/12/21 09:02:31;;;;;;;;;;;;;;;-0.05;95.74;93911.31;5025986;28;19936;-66
2023/12/21 09:04:57;;;;;;;;;;;;;;;-0.08;96.26;93911.59;5025136;28;19925;-66
2023/12/21 09:07:24;;;;;;;;;;;;;;;-0.08;95.97;93901.13;5028522;28;19928;-65
2023/12/21 09:09:49;;;;;;;;;;;;;;;0.10;94.83;93879.34;5020503;28;20154;-64
2023/12/21 09:12:15;;;;;;;;;;;;;;;-0.01;95.13;93898.72;5019451;28;19929;-67
2023/12/21 09:14:40;;;;;;;;;;;;;;;0.00;93.99;93885.47;5021037;28;19933;-66
2023/12/21 09:17:06;;;;;;;;;;;;;;;0.10;94.27;93871.50;5015418;28;19937;-65
2023/12/21 09:19:34;;;;;;;;;;;;;;;0.29;93.74;93860.78;5020049;28;20058;-67
2023/12/21 09:22:00;;;;;;;;;;;;;;;0.45;93.30;93870.47;5019559;28;19967;-67
2023/12/21 09:24:25;;;;;;;;;;;;;;;0.55;90.95;93885.25;5025909;28;20012;-66
2023/12/21 09:26:50;;;;;;;;;;;;;;;0.34;93.15;93887.31;5026781;28;19972;-64
2023/12/21 09:29:16;;;;;;;;;;;;;;;0.52;93.42;93875.94;5022011;28;19929;-65
2023/12/21 09:31:41;;;;;;;;;;;;;;;0.04;94.78;93862.47;5024713;28;20947;-65
2023/12/21 09:34:07;;;;;;;;;;;;;;;-0.08;97.41;93880.19;5021432;28;19929;-66
2023/12/21 09:36:33;;;;;;;;;;;;;;;0.18;96.55;93863.66;5022731;28;20340;-66
2023/12/21 09:38:58;;;;;;;;;;;;;;;-0.22;98.40;93889.44;5028075;28;19925;-65
2023/12/21 09:41:23;;;;;;;;;;;;;;;0.19;97.39;93874.00;5025663;28;19940;-65
2023/12/21 09:43:48;;;;;;;;;;;;;;;0.38;96.12;93863.44;5028568;28;19925;-65
2023/12/21 09:46:14;;;;;;;;;;;;;;;0.65;93.92;93853.69;5022965;28;20410;-66
2023/12/21 09:48:40;;;;;;;;;;;;;;;0.54;94.29;93853.00;5024545;28;19925;-66
2023/12/21 09:51:05;;;;;;;;;;;;;;;0.30;94.66;93833.63;5021077;28;19985;-66
2023/12/21 09:53:30;;;;;;;;;;;;;;;0.34;94.62;93849.81;5024191;28;20022;-67
2023/12/21 09:55:57;;;;;;;;;;;;;;;0.58;93.72;93832.56;5025974;28;20210;-66
2023/12/21 09:58:22;;;;;;;;;;;;;;;0.28;94.46;93840.78;5023096;28;20604;-66
2023/12/21 10:00:47;;;;;;;;;;;;;;;0.50;94.61;93832.53;5025609;28;19929;-65
2023/12/21 10:03:13;;;;;;;;;;;;;;;0.26;95.58;93829.66;5028056;28;19982;-66
2023/12/21 10:05:40;;;;;;;;;;;;;;;0.15;96.63;93827.34;5020697;28;20366;-65
2023/12/21 10:08:05;;;;;;;;;;;;;;;0.25;97.62;93820.19;5017724;28;19936;-66
2023/12/21 10:10:30;;;;;;;;;;;;;;;0.19;97.98;93834.72;5009180;28;19964;-64
2023/12/21 10:12:55;;;;;;;;;;;;;;;0.21;97.65;93800.53;5016957;28;19925;-67
2023/12/21 10:15:21;;;;;;;;;;;;;;;0.02;98.76;93791.13;5017509;28;19928;-64
2023/12/21 10:17:46;;;;;;;;;;;;;;;0.41;98.14;93801.06;5017501;28;20031;-66
2023/12/21 10:20:12;;;;;;;;;;;;;;;0.10;98.89;93782.50;5018207;28;19921;-63
2023/12/21 10:22:41;;;;;;;;;;;;;;;0.08;98.93;93804.41;5019579;28;19964;-65
2023/12/21 10:25:09;;;;;;;;;;;;;;;0.32;99.56;93779.31;5018993;28;20049;-64
2023/12/21 10:27:35;;;;;;;;;;;;;;;0.16;98.66;93771.38;5020930;28;19921;-66
2023/12/21 10:30:00;;;;;;;;;;;;;;;0.08;98.74;93773.00;5017505;28;19933;-66
2023/12/21 10:32:26;;;;;;;;;;;;;;;-0.15;99.81;93783.22;5015542;28;19925;-64
2023/12/21 10:34:53;;;;;;;;;;;;;;;0.03;99.84;93759.56;5020640;28;19979;-65
2023/12/21 10:37:20;;;;;;;;;;;;;;;0.16;99.14;93753.06;5012358;28;19925;-66
2023/12/21 10:39:45;;;;;;;;;;;;;;;0.23;99.84;93738.38;5017114;28;19925;-67
2023/12/21 10:42:13;;;;;;;;;;;;;;;0.19;99.53;93757.97;5016685;28;20149;-65
2023/12/21 10:44:38;;;;;;;;;;;;;;;0.25;99.10;93746.88;4998218;28;19940;-66
2023/12/21 10:47:03;;;;;;;;;;;;;;;0.06;99.94;93735.72;5020104;28;19953;-66
2023/12/21 10:49:29;;;;;;;;;;;;;;;0.10;100.00;93730.97;5022299;28;19925;-66
2023/12/21 10:51:55;;;;;;;;;;;;;;;0.23;98.65;93714.81;5022567;28;20363;-67
2023/12/21 10:54:22;;;;;;;;;;;;;;;0.10;99.89;93712.66;5024196;28;19937;-67
2023/12/21 10:56:47;;;;;;;;;;;;;;;-0.04;100.00;93711.47;5017947;28;19929;-65
2023/12/21 10:59:12;;;;;;;;;;;;;;;-0.27;100.00;93709.41;5026573;28;19927;-65
2023/12/21 11:01:38;;;;;;;;;;;;;;;-0.07;100.00;93730.91;5018540;28;19925;-65
2023/12/21 11:04:03;;;;;;;;;;;;;;;0.30;99.83;93704.50;5021113;28;20511;-66
2023/12/21 11:06:28;;;;;;;;;;;;;;;0.77;99.20;93692.59;5021056;28;20007;-66
2023/12/21 11:08:54;;;;;;;;;;;;;;;0.80;96.36;93679.19;5025593;28;19925;-67
2023/12/21 11:11:22;;;;;;;;;;;;;;;0.99;93.74;93692.94;5020118;28;20038;-67
2023/12/21 11:13:55;;;;;;;;;;;;;;;0.96;96.30;93703.72;5022878;28;19924;-66
2023/12/21 11:16:24;;;;;;;;;;;;;;;0.90;95.73;93676.38;5034291;28;19929;-66
2023/12/21 11:18:50;;;;;;;;;;;;;;;0.97;96.08;93673.91;5017864;28;20342;-66
2023/12/21 11:21:15;;;;;;;;;;;;;;;0.88;98.33;93667.06;5024001;28;20052;-66
2023/12/21 11:23:41;;;;;;;;;;;;;;;1.97;93.33;93674.44;5022037;28;19925;-64
2023/12/21 11:26:07;;;;;;;;;;;;;;;1.76;91.49;93659.28;5025841;28;19921;-66
2023/12/21 11:28:33;;;;;;;;;;;;;;;1.74;92.65;93661.28;5017618;28;20502;-65
2023/12/21 11:30:59;;;;;;;;;;;;;;;1.52;95.99;93668.88;5022559;28;20340;-65
2023/12/21 11:33:28;;;;;;;;;;;;;;;1.90;93.61;93635.94;5019630;28;19933;-67
2023/12/21 11:35:53;;;;;;;;;;;;;;;2.00;92.46;93658.34;5022884;28;19925;-65
2023/12/21 11:38:19;;;;;;;;;;;;;;;2.82;91.61;93676.31;5020425;28;20692;-66
2023/12/21 11:40:47;;;;;;;;;;;;;;;3.10;87.87;93652.06;5023653;28;20631;-65
2023/12/21 11:43:19;;;;;;;;;;;;;;;3.22;87.51;93639.31;5017544;28;20032;-65
2023/12/21 11:45:46;;;;;;;;;;;;;;;2.71;87.04;93647.84;5021804;28;20074;-65
2023/12/21 11:48:16;;;;;;;;;;;;;;;2.51;88.55;93637.81;5023753;28;20523;-66
2023/12/21 11:50:43;;;;;;;;;;;;;;;2.72;90.46;93660.00;5017618;28;19925;-65
2023/12/21 11:53:11;;;;;;;;;;;;;;;2.83;89.52;93642.97;5022701;28;19924;-67
2023/12/21 11:55:37;;;;;;;;;;;;;;;2.49;92.02;93642.44;5019097;28;20464;-66
2023/12/21 11:58:06;;;;;;;;;;;;;;;2.62;90.01;93624.25;5019504;28;19916;-65
2023/12/21 12:00:32;;;;;;;;;;;;;;;3.09;90.01;93600.50;5017513;28;19925;-67
2023/12/21 12:02:58;;;;;;;;;;;;;;;2.59;90.64;93611.47;5015596;28;19947;-65
2023/12/21 12:05:23;;;;;;;;;;;;;;;2.38;89.95;93601.63;5024390;28;19925;-65
2023/12/21 12:07:49;;;;;;;;;;;;;;;2.37;91.42;93592.94;5022538;28;20818;-66
2023/12/21 12:10:15;;;;;;;;;;;;;;;1.87;92.91;93579.34;5024921;28;19982;-64
2023/12/21 12:12:41;;;;;;;;;;;;;;;2.00;93.81;93626.03;5021128;28;19959;-66
2023/12/21 12:15:06;;;;;;;;;;;;;;;1.57;93.47;93595.75;5027976;28;20802;-66
2023/12/21 12:17:31;;;;;;;;;;;;;;;0.68;98.98;93610.56;5023459;28;19977;-65
2023/12/21 12:19:57;;;;;;;;;;;;;;;0.30;100.00;93605.84;5027279;28;19968;-66
2023/12/21 12:22:22;;;;;;;;;;;;;;;0.14;100.00;93595.38;5027626;28;20123;-66
2023/12/21 12:24:49;;;;;;;;;;;;;;;0.11;100.00;93593.91;5022683;28;20445;-66
2023/12/21 12:27:14;;;;;;;;;;;;;;;0.33;100.00;93541.88;5030547;28;19950;-66
2023/12/21 12:29:39;;;;;;;;;;;;;;;0.06;100.00;93575.25;5021814;28;20449;-64
2023/12/21 12:32:05;;;;;;;;;;;;;;;0.44;100.00;93572.97;5023894;28;20210;-66
2023/12/21 12:34:30;;;;;;;;;;;;;;;2.02;100.00;93568.94;5022746;28;19970;-65
2023/12/21 12:36:55;;;;;;;;;;;;;;;1.86;94.80;93557.56;5027617;28;20567;-66
2023/12/21 12:39:21;;;;;;;;;;;;;;;1.76;96.51;93575.31;5028663;28;20063;-64
2023/12/21 12:41:46;;;;;;;;;;;;;;;1.07;99.09;93567.09;5024727;28;19964;-65